sensor_id;sensor_type;location;lat;lon;timestamp;P1;durP1;ratioP1;P2;durP2;ratioP2
49015;SDS011;34830;44.064;12.566;2022-10-16T00:00:34;39.03;;;25.00;;
49015;SDS011;34830;44.064;12.566;2022-10-16T00:03:01;41.67;;;25.83;;
49015;SDS011;34830;44.064;12.566;2022-10-16T00:05:27;38.20;;;24.70;;
49015;SDS011;34830;44.064;12.566;2022-10-16T00:07:54;41.17;;;26.95;;
49015;SDS011;34830;44.064;12.566;2022-10-16T00:10:20;42.13;;;26.65;;
49015;SDS011;34830;44.064;12.566;2022-10-16T00:12:46;40.05;;;26.13;;
49015;SDS011;34830;44.064;12.566;2022-10-16T00:15:12;44.60;;;27.40;;
49015;SDS011;34830;44.064;12.566;2022-10-16T00:17:39;44.08;;;27.10;;
49015;SDS011;34830;44.064;12.566;2022-10-16T00:20:05;44.67;;;26.90;;
49015;SDS011;34830;44.064;12.566;2022-10-16T00:22:32;44.55;;;26.23;;
49015;SDS011;34830;44.064;12.566;2022-10-16T00:24:58;38.10;;;24.88;;
49015;SDS011;34830;44.064;12.566;2022-10-16T00:27:24;38.60;;;25.13;;
49015;SDS011;34830;44.064;12.566;2022-10-16T00:29:51;42.63;;;26.52;;
49015;SDS011;34830;44.064;12.566;2022-10-16T00:32:18;45.08;;;26.83;;
49015;SDS011;34830;44.064;12.566;2022-10-16T00:34:47;41.88;;;26.52;;
49015;SDS011;34830;44.064;12.566;2022-10-16T00:37:13;41.72;;;26.95;;
49015;SDS011;34830;44.064;12.566;2022-10-16T00:39:39;45.15;;;26.55;;
49015;SDS011;34830;44.064;12.566;2022-10-16T00:42:05;42.30;;;27.42;;
49015;SDS011;34830;44.064;12.566;2022-10-16T00:44:51;40.22;;;24.70;;
49015;SDS011;34830;44.064;12.566;2022-10-16T00:47:41;40.30;;;26.60;;
49015;SDS011;34830;44.064;12.566;2022-10-16T00:52:46;39.10;;;25.80;;
49015;SDS011;34830;44.064;12.566;2022-10-16T00:55:13;35.92;;;23.88;;
49015;SDS011;34830;44.064;12.566;2022-10-16T00:57:39;35.67;;;23.55;;
49015;SDS011;34830;44.064;12.566;2022-10-16T01:00:07;35.15;;;24.10;;
49015;SDS011;34830;44.064;12.566;2022-10-16T01:02:35;33.72;;;22.35;;
49015;SDS011;34830;44.064;12.566;2022-10-16T01:05:01;31.00;;;20.40;;
49015;SDS011;34830;44.064;12.566;2022-10-16T01:16:09;25.10;;;17.25;;
49015;SDS011;34830;44.064;12.566;2022-10-16T01:21:10;27.73;;;18.98;;
49015;SDS011;34830;44.064;12.566;2022-10-16T01:26:31;27.27;;;17.63;;
49015;SDS011;34830;44.064;12.566;2022-10-16T01:29:06;27.35;;;18.40;;
49015;SDS011;34830;44.064;12.566;2022-10-16T01:36:50;27.60;;;19.15;;
49015;SDS011;34830;44.064;12.566;2022-10-16T01:39:21;25.83;;;17.45;;
49015;SDS011;34830;44.064;12.566;2022-10-16T01:41:49;23.80;;;16.90;;
49015;SDS011;34830;44.064;12.566;2022-10-16T01:44:26;28.13;;;18.58;;
49015;SDS011;34830;44.064;12.566;2022-10-16T01:46:55;30.13;;;17.58;;
49015;SDS011;34830;44.064;12.566;2022-10-16T01:49:22;27.38;;;17.95;;
49015;SDS011;34830;44.064;12.566;2022-10-16T01:51:49;27.85;;;17.13;;
49015;SDS011;34830;44.064;12.566;2022-10-16T01:54:19;22.92;;;14.48;;
49015;SDS011;34830;44.064;12.566;2022-10-16T01:56:46;19.40;;;13.02;;
49015;SDS011;34830;44.064;12.566;2022-10-16T01:59:13;21.60;;;12.68;;
49015;SDS011;34830;44.064;12.566;2022-10-16T02:01:42;20.45;;;13.60;;
49015;SDS011;34830;44.064;12.566;2022-10-16T02:04:36;21.92;;;13.52;;
49015;SDS011;34830;44.064;12.566;2022-10-16T02:07:05;20.95;;;14.05;;
49015;SDS011;34830;44.064;12.566;2022-10-16T02:09:32;19.20;;;13.23;;
49015;SDS011;34830;44.064;12.566;2022-10-16T02:11:59;24.50;;;13.60;;
49015;SDS011;34830;44.064;12.566;2022-10-16T02:14:29;20.30;;;12.93;;
49015;SDS011;34830;44.064;12.566;2022-10-16T02:16:56;22.25;;;14.25;;
49015;SDS011;34830;44.064;12.566;2022-10-16T02:19:22;23.77;;;13.82;;
49015;SDS011;34830;44.064;12.566;2022-10-16T02:21:53;21.25;;;14.70;;
49015;SDS011;34830;44.064;12.566;2022-10-16T02:24:34;22.45;;;14.30;;
49015;SDS011;34830;44.064;12.566;2022-10-16T02:27:14;21.73;;;13.70;;
49015;SDS011;34830;44.064;12.566;2022-10-16T02:29:49;21.52;;;13.95;;
49015;SDS011;34830;44.064;12.566;2022-10-16T02:32:33;18.13;;;12.68;;
49015;SDS011;34830;44.064;12.566;2022-10-16T02:35:01;17.25;;;12.73;;
49015;SDS011;34830;44.064;12.566;2022-10-16T02:37:28;17.98;;;12.85;;
49015;SDS011;34830;44.064;12.566;2022-10-16T02:39:56;21.38;;;13.38;;
49015;SDS011;34830;44.064;12.566;2022-10-16T02:42:27;19.45;;;13.48;;
49015;SDS011;34830;44.064;12.566;2022-10-16T02:44:55;18.45;;;12.70;;
49015;SDS011;34830;44.064;12.566;2022-10-16T02:47:21;21.05;;;13.52;;
49015;SDS011;34830;44.064;12.566;2022-10-16T02:49:47;20.10;;;13.45;;
49015;SDS011;34830;44.064;12.566;2022-10-16T02:52:13;19.13;;;12.48;;
49015;SDS011;34830;44.064;12.566;2022-10-16T02:54:39;17.70;;;12.07;;
49015;SDS011;34830;44.064;12.566;2022-10-16T02:57:05;20.90;;;11.93;;
49015;SDS011;34830;44.064;12.566;2022-10-16T02:59:31;17.05;;;10.18;;
49015;SDS011;34830;44.064;12.566;2022-10-16T03:01:57;17.70;;;11.05;;
49015;SDS011;34830;44.064;12.566;2022-10-16T03:04:23;16.20;;;11.50;;
49015;SDS011;34830;44.064;12.566;2022-10-16T03:06:49;16.38;;;10.60;;
49015;SDS011;34830;44.064;12.566;2022-10-16T03:09:15;17.58;;;10.68;;
49015;SDS011;34830;44.064;12.566;2022-10-16T03:11:41;17.15;;;12.32;;
49015;SDS011;34830;44.064;12.566;2022-10-16T03:14:07;20.15;;;11.77;;
49015;SDS011;34830;44.064;12.566;2022-10-16T03:16:33;18.25;;;12.52;;
49015;SDS011;34830;44.064;12.566;2022-10-16T03:18:59;18.27;;;12.00;;
49015;SDS011;34830;44.064;12.566;2022-10-16T03:21:26;20.08;;;10.65;;
49015;SDS011;34830;44.064;12.566;2022-10-16T03:23:52;17.60;;;11.27;;
49015;SDS011;34830;44.064;12.566;2022-10-16T03:26:18;17.83;;;11.88;;
49015;SDS011;34830;44.064;12.566;2022-10-16T03:28:44;15.73;;;10.95;;
49015;SDS011;34830;44.064;12.566;2022-10-16T03:31:10;17.45;;;12.05;;
49015;SDS011;34830;44.064;12.566;2022-10-16T03:33:36;18.65;;;12.25;;
49015;SDS011;34830;44.064;12.566;2022-10-16T03:36:03;19.95;;;13.13;;
49015;SDS011;34830;44.064;12.566;2022-10-16T03:38:29;18.83;;;12.25;;
49015;SDS011;34830;44.064;12.566;2022-10-16T03:40:55;20.33;;;12.52;;
49015;SDS011;34830;44.064;12.566;2022-10-16T03:43:22;21.08;;;13.43;;
49015;SDS011;34830;44.064;12.566;2022-10-16T03:45:49;18.55;;;11.73;;
49015;SDS011;34830;44.064;12.566;2022-10-16T03:48:17;17.23;;;11.95;;
49015;SDS011;34830;44.064;12.566;2022-10-16T03:50:44;14.95;;;11.10;;
49015;SDS011;34830;44.064;12.566;2022-10-16T03:53:10;16.02;;;11.25;;
49015;SDS011;34830;44.064;12.566;2022-10-16T03:55:36;17.33;;;12.02;;
49015;SDS011;34830;44.064;12.566;2022-10-16T03:58:02;18.63;;;11.32;;
49015;SDS011;34830;44.064;12.566;2022-10-16T04:00:28;18.27;;;12.13;;
49015;SDS011;34830;44.064;12.566;2022-10-16T04:02:54;21.00;;;12.75;;
49015;SDS011;34830;44.064;12.566;2022-10-16T04:05:20;19.20;;;12.90;;
49015;SDS011;34830;44.064;12.566;2022-10-16T04:07:46;25.83;;;13.70;;
49015;SDS011;34830;44.064;12.566;2022-10-16T04:10:12;22.38;;;14.68;;
49015;SDS011;34830;44.064;12.566;2022-10-16T04:12:38;20.63;;;14.05;;
49015;SDS011;34830;44.064;12.566;2022-10-16T04:15:04;21.67;;;14.40;;
49015;SDS011;34830;44.064;12.566;2022-10-16T04:17:31;26.88;;;15.13;;
49015;SDS011;34830;44.064;12.566;2022-10-16T04:19:57;22.40;;;13.73;;
49015;SDS011;34830;44.064;12.566;2022-10-16T04:22:23;23.65;;;13.60;;
49015;SDS011;34830;44.064;12.566;2022-10-16T04:24:49;26.60;;;15.75;;
49015;SDS011;34830;44.064;12.566;2022-10-16T04:27:15;21.20;;;13.55;;
49015;SDS011;34830;44.064;12.566;2022-10-16T04:29:41;21.58;;;13.30;;
49015;SDS011;34830;44.064;12.566;2022-10-16T04:32:08;22.15;;;13.13;;
49015;SDS011;34830;44.064;12.566;2022-10-16T04:34:34;19.50;;;12.77;;
49015;SDS011;34830;44.064;12.566;2022-10-16T04:37:00;20.13;;;12.27;;
49015;SDS011;34830;44.064;12.566;2022-10-16T04:39:26;17.95;;;12.30;;
49015;SDS011;34830;44.064;12.566;2022-10-16T04:41:52;17.75;;;12.15;;
49015;SDS011;34830;44.064;12.566;2022-10-16T04:44:18;20.40;;;12.50;;
49015;SDS011;34830;44.064;12.566;2022-10-16T04:46:44;18.10;;;11.85;;
49015;SDS011;34830;44.064;12.566;2022-10-16T04:49:10;16.30;;;11.52;;
49015;SDS011;34830;44.064;12.566;2022-10-16T04:51:36;21.83;;;11.43;;
49015;SDS011;34830;44.064;12.566;2022-10-16T04:54:02;17.02;;;11.25;;
49015;SDS011;34830;44.064;12.566;2022-10-16T04:56:28;18.25;;;11.45;;
49015;SDS011;34830;44.064;12.566;2022-10-16T04:58:55;26.38;;;14.63;;
49015;SDS011;34830;44.064;12.566;2022-10-16T05:01:21;20.33;;;11.45;;
49015;SDS011;34830;44.064;12.566;2022-10-16T05:03:47;19.13;;;12.55;;
49015;SDS011;34830;44.064;12.566;2022-10-16T05:06:13;17.10;;;12.38;;
49015;SDS011;34830;44.064;12.566;2022-10-16T05:08:39;23.70;;;13.43;;
49015;SDS011;34830;44.064;12.566;2022-10-16T05:11:05;18.85;;;12.82;;
49015;SDS011;34830;44.064;12.566;2022-10-16T05:13:31;20.38;;;12.82;;
49015;SDS011;34830;44.064;12.566;2022-10-16T05:15:57;19.02;;;12.60;;
49015;SDS011;34830;44.064;12.566;2022-10-16T05:18:23;21.17;;;12.85;;
49015;SDS011;34830;44.064;12.566;2022-10-16T05:20:49;28.80;;;14.50;;
49015;SDS011;34830;44.064;12.566;2022-10-16T05:23:15;23.60;;;13.15;;
49015;SDS011;34830;44.064;12.566;2022-10-16T05:25:41;23.08;;;14.57;;
49015;SDS011;34830;44.064;12.566;2022-10-16T05:28:07;21.17;;;14.70;;
49015;SDS011;34830;44.064;12.566;2022-10-16T05:30:33;22.23;;;14.50;;
49015;SDS011;34830;44.064;12.566;2022-10-16T05:33:00;20.13;;;13.90;;
49015;SDS011;34830;44.064;12.566;2022-10-16T05:35:26;19.00;;;12.85;;
49015;SDS011;34830;44.064;12.566;2022-10-16T05:37:52;23.80;;;13.93;;
49015;SDS011;34830;44.064;12.566;2022-10-16T05:40:18;17.52;;;11.85;;
49015;SDS011;34830;44.064;12.566;2022-10-16T05:42:44;20.00;;;12.77;;
49015;SDS011;34830;44.064;12.566;2022-10-16T05:45:10;17.58;;;12.02;;
49015;SDS011;34830;44.064;12.566;2022-10-16T05:47:37;14.95;;;10.30;;
49015;SDS011;34830;44.064;12.566;2022-10-16T05:50:04;17.65;;;10.18;;
49015;SDS011;34830;44.064;12.566;2022-10-16T05:52:30;22.17;;;10.93;;
49015;SDS011;34830;44.064;12.566;2022-10-16T05:54:56;15.05;;;9.82;;
49015;SDS011;34830;44.064;12.566;2022-10-16T05:57:22;13.93;;;9.65;;
49015;SDS011;34830;44.064;12.566;2022-10-16T05:59:48;14.43;;;9.43;;
49015;SDS011;34830;44.064;12.566;2022-10-16T06:02:14;13.55;;;8.68;;
49015;SDS011;34830;44.064;12.566;2022-10-16T06:04:40;11.77;;;7.95;;
49015;SDS011;34830;44.064;12.566;2022-10-16T06:07:07;13.10;;;8.27;;
49015;SDS011;34830;44.064;12.566;2022-10-16T06:09:33;12.00;;;6.90;;
49015;SDS011;34830;44.064;12.566;2022-10-16T06:11:59;9.43;;;6.68;;
49015;SDS011;34830;44.064;12.566;2022-10-16T06:14:25;12.68;;;7.47;;
49015;SDS011;34830;44.064;12.566;2022-10-16T06:16:51;12.35;;;7.55;;
49015;SDS011;34830;44.064;12.566;2022-10-16T06:19:17;15.70;;;8.20;;
49015;SDS011;34830;44.064;12.566;2022-10-16T06:21:44;14.50;;;7.97;;
49015;SDS011;34830;44.064;12.566;2022-10-16T06:24:10;14.07;;;8.73;;
49015;SDS011;34830;44.064;12.566;2022-10-16T06:26:36;13.57;;;7.13;;
49015;SDS011;34830;44.064;12.566;2022-10-16T06:29:03;15.45;;;7.95;;
49015;SDS011;34830;44.064;12.566;2022-10-16T06:31:29;12.88;;;7.72;;
49015;SDS011;34830;44.064;12.566;2022-10-16T06:33:56;16.98;;;8.15;;
49015;SDS011;34830;44.064;12.566;2022-10-16T06:36:23;10.77;;;7.93;;
49015;SDS011;34830;44.064;12.566;2022-10-16T06:38:50;11.23;;;7.93;;
49015;SDS011;34830;44.064;12.566;2022-10-16T06:41:21;12.88;;;7.57;;
49015;SDS011;34830;44.064;12.566;2022-10-16T06:43:48;12.88;;;7.68;;
49015;SDS011;34830;44.064;12.566;2022-10-16T06:46:15;13.05;;;7.80;;
49015;SDS011;34830;44.064;12.566;2022-10-16T06:48:43;10.15;;;6.82;;
49015;SDS011;34830;44.064;12.566;2022-10-16T06:51:10;13.43;;;7.47;;
49015;SDS011;34830;44.064;12.566;2022-10-16T06:53:45;13.82;;;7.35;;
49015;SDS011;34830;44.064;12.566;2022-10-16T06:56:15;8.82;;;6.13;;
49015;SDS011;34830;44.064;12.566;2022-10-16T06:58:43;9.82;;;6.00;;
49015;SDS011;34830;44.064;12.566;2022-10-16T07:01:10;9.70;;;6.78;;
49015;SDS011;34830;44.064;12.566;2022-10-16T07:03:37;10.80;;;5.47;;
49015;SDS011;34830;44.064;12.566;2022-10-16T07:06:05;9.38;;;6.20;;
49015;SDS011;34830;44.064;12.566;2022-10-16T07:08:35;10.50;;;5.60;;
49015;SDS011;34830;44.064;12.566;2022-10-16T07:11:03;8.95;;;5.25;;
49015;SDS011;34830;44.064;12.566;2022-10-16T07:13:32;8.70;;;4.68;;
49015;SDS011;34830;44.064;12.566;2022-10-16T07:18:32;9.35;;;6.35;;
49015;SDS011;34830;44.064;12.566;2022-10-16T07:21:05;9.07;;;5.90;;
49015;SDS011;34830;44.064;12.566;2022-10-16T07:23:33;7.40;;;5.20;;
49015;SDS011;34830;44.064;12.566;2022-10-16T07:25:59;10.07;;;5.10;;
49015;SDS011;34830;44.064;12.566;2022-10-16T07:28:25;13.32;;;5.68;;
49015;SDS011;34830;44.064;12.566;2022-10-16T07:30:52;8.43;;;5.45;;
49015;SDS011;34830;44.064;12.566;2022-10-16T07:33:18;9.40;;;6.03;;
49015;SDS011;34830;44.064;12.566;2022-10-16T07:35:48;10.90;;;6.40;;
49015;SDS011;34830;44.064;12.566;2022-10-16T07:38:17;9.85;;;5.38;;
49015;SDS011;34830;44.064;12.566;2022-10-16T07:40:44;9.52;;;5.60;;
49015;SDS011;34830;44.064;12.566;2022-10-16T07:43:10;10.70;;;5.60;;
49015;SDS011;34830;44.064;12.566;2022-10-16T07:45:37;10.30;;;5.72;;
49015;SDS011;34830;44.064;12.566;2022-10-16T07:48:03;9.18;;;5.03;;
49015;SDS011;34830;44.064;12.566;2022-10-16T07:50:29;8.75;;;5.35;;
49015;SDS011;34830;44.064;12.566;2022-10-16T07:52:55;7.65;;;5.68;;
49015;SDS011;34830;44.064;12.566;2022-10-16T07:55:21;10.48;;;5.47;;
49015;SDS011;34830;44.064;12.566;2022-10-16T07:57:47;11.75;;;5.38;;
49015;SDS011;34830;44.064;12.566;2022-10-16T08:00:13;11.20;;;5.80;;
49015;SDS011;34830;44.064;12.566;2022-10-16T08:02:40;8.38;;;5.18;;
49015;SDS011;34830;44.064;12.566;2022-10-16T08:05:06;8.82;;;5.30;;
49015;SDS011;34830;44.064;12.566;2022-10-16T08:07:33;8.98;;;5.28;;
49015;SDS011;34830;44.064;12.566;2022-10-16T08:09:59;11.05;;;6.30;;
49015;SDS011;34830;44.064;12.566;2022-10-16T08:12:25;10.15;;;6.32;;
49015;SDS011;34830;44.064;12.566;2022-10-16T08:14:52;13.73;;;8.40;;
49015;SDS011;34830;44.064;12.566;2022-10-16T08:17:18;9.25;;;6.65;;
49015;SDS011;34830;44.064;12.566;2022-10-16T08:19:47;9.45;;;6.63;;
49015;SDS011;34830;44.064;12.566;2022-10-16T08:22:13;9.88;;;6.40;;
49015;SDS011;34830;44.064;12.566;2022-10-16T08:24:40;10.00;;;6.07;;
49015;SDS011;34830;44.064;12.566;2022-10-16T08:27:06;14.43;;;6.95;;
49015;SDS011;34830;44.064;12.566;2022-10-16T08:29:34;17.35;;;8.05;;
49015;SDS011;34830;44.064;12.566;2022-10-16T08:32:00;10.43;;;7.20;;
49015;SDS011;34830;44.064;12.566;2022-10-16T08:34:26;16.08;;;10.50;;
49015;SDS011;34830;44.064;12.566;2022-10-16T08:36:53;17.27;;;9.38;;
49015;SDS011;34830;44.064;12.566;2022-10-16T08:39:20;14.85;;;9.57;;
49015;SDS011;34830;44.064;12.566;2022-10-16T08:41:54;15.70;;;8.85;;
49015;SDS011;34830;44.064;12.566;2022-10-16T08:47:45;15.10;;;8.88;;
49015;SDS011;34830;44.064;12.566;2022-10-16T08:50:14;14.05;;;8.88;;
49015;SDS011;34830;44.064;12.566;2022-10-16T08:52:49;13.93;;;7.45;;
49015;SDS011;34830;44.064;12.566;2022-10-16T08:55:28;19.48;;;9.30;;
49015;SDS011;34830;44.064;12.566;2022-10-16T08:57:55;11.38;;;8.38;;
49015;SDS011;34830;44.064;12.566;2022-10-16T09:00:22;14.85;;;9.75;;
49015;SDS011;34830;44.064;12.566;2022-10-16T09:11:24;23.20;;;14.15;;
49015;SDS011;34830;44.064;12.566;2022-10-16T09:14:06;15.65;;;10.93;;
49015;SDS011;34830;44.064;12.566;2022-10-16T09:16:37;18.83;;;12.40;;
49015;SDS011;34830;44.064;12.566;2022-10-16T09:21:41;16.58;;;11.48;;
49015;SDS011;34830;44.064;12.566;2022-10-16T09:24:18;16.65;;;10.25;;
49015;SDS011;34830;44.064;12.566;2022-10-16T09:26:51;17.95;;;11.77;;
49015;SDS011;34830;44.064;12.566;2022-10-16T09:29:17;20.38;;;11.25;;
49015;SDS011;34830;44.064;12.566;2022-10-16T09:31:46;17.90;;;11.25;;
49015;SDS011;34830;44.064;12.566;2022-10-16T09:36:56;18.15;;;13.32;;
49015;SDS011;34830;44.064;12.566;2022-10-16T09:39:23;21.17;;;14.38;;
49015;SDS011;34830;44.064;12.566;2022-10-16T09:41:49;20.73;;;13.63;;
49015;SDS011;34830;44.064;12.566;2022-10-16T09:44:26;25.27;;;16.05;;
49015;SDS011;34830;44.064;12.566;2022-10-16T09:47:03;22.38;;;17.33;;
49015;SDS011;34830;44.064;12.566;2022-10-16T09:49:50;20.85;;;15.45;;
49015;SDS011;34830;44.064;12.566;2022-10-16T09:52:21;28.10;;;17.23;;
49015;SDS011;34830;44.064;12.566;2022-10-16T09:54:54;24.20;;;18.52;;
49015;SDS011;34830;44.064;12.566;2022-10-16T09:57:22;32.78;;;16.75;;
49015;SDS011;34830;44.064;12.566;2022-10-16T09:59:55;25.83;;;15.60;;
49015;SDS011;34830;44.064;12.566;2022-10-16T10:02:28;24.10;;;16.38;;
49015;SDS011;34830;44.064;12.566;2022-10-16T10:05:02;24.77;;;18.25;;
49015;SDS011;34830;44.064;12.566;2022-10-16T10:07:31;25.42;;;18.17;;
49015;SDS011;34830;44.064;12.566;2022-10-16T10:10:03;27.10;;;18.35;;
49015;SDS011;34830;44.064;12.566;2022-10-16T10:12:30;28.73;;;19.88;;
49015;SDS011;34830;44.064;12.566;2022-10-16T10:14:58;27.15;;;18.50;;
49015;SDS011;34830;44.064;12.566;2022-10-16T10:17:32;25.52;;;19.33;;
49015;SDS011;34830;44.064;12.566;2022-10-16T10:20:00;26.67;;;19.20;;
49015;SDS011;34830;44.064;12.566;2022-10-16T10:22:46;26.23;;;18.30;;
49015;SDS011;34830;44.064;12.566;2022-10-16T10:35:38;27.13;;;18.15;;
49015;SDS011;34830;44.064;12.566;2022-10-16T10:45:46;26.60;;;18.25;;
49015;SDS011;34830;44.064;12.566;2022-10-16T10:48:25;28.15;;;18.15;;
49015;SDS011;34830;44.064;12.566;2022-10-16T10:50:53;26.30;;;18.83;;
49015;SDS011;34830;44.064;12.566;2022-10-16T11:04:44;27.90;;;18.98;;
49015;SDS011;34830;44.064;12.566;2022-10-16T11:10:02;29.10;;;21.95;;
49015;SDS011;34830;44.064;12.566;2022-10-16T11:15:45;26.85;;;18.40;;
49015;SDS011;34830;44.064;12.566;2022-10-16T11:18:32;28.02;;;18.50;;
49015;SDS011;34830;44.064;12.566;2022-10-16T11:21:10;33.67;;;20.95;;
49015;SDS011;34830;44.064;12.566;2022-10-16T11:23:53;30.15;;;18.98;;
49015;SDS011;34830;44.064;12.566;2022-10-16T11:26:24;28.40;;;18.83;;
49015;SDS011;34830;44.064;12.566;2022-10-16T11:28:55;27.92;;;20.08;;
49015;SDS011;34830;44.064;12.566;2022-10-16T11:31:24;27.83;;;19.65;;
49015;SDS011;34830;44.064;12.566;2022-10-16T11:36:53;27.67;;;19.00;;
49015;SDS011;34830;44.064;12.566;2022-10-16T11:41:51;27.38;;;20.50;;
49015;SDS011;34830;44.064;12.566;2022-10-16T11:44:34;27.20;;;19.52;;
49015;SDS011;34830;44.064;12.566;2022-10-16T11:50:09;27.13;;;18.92;;
49015;SDS011;34830;44.064;12.566;2022-10-16T11:52:51;28.25;;;19.27;;
49015;SDS011;34830;44.064;12.566;2022-10-16T11:55:21;29.05;;;19.52;;
49015;SDS011;34830;44.064;12.566;2022-10-16T11:57:50;26.95;;;18.48;;
49015;SDS011;34830;44.064;12.566;2022-10-16T12:00:25;25.88;;;17.58;;
49015;SDS011;34830;44.064;12.566;2022-10-16T12:05:52;23.23;;;16.15;;
49015;SDS011;34830;44.064;12.566;2022-10-16T12:08:21;22.15;;;15.38;;
49015;SDS011;34830;44.064;12.566;2022-10-16T12:10:47;21.77;;;15.02;;
49015;SDS011;34830;44.064;12.566;2022-10-16T12:13:30;21.67;;;13.90;;
49015;SDS011;34830;44.064;12.566;2022-10-16T12:18:38;19.40;;;12.68;;
49015;SDS011;34830;44.064;12.566;2022-10-16T12:21:06;23.13;;;14.20;;
49015;SDS011;34830;44.064;12.566;2022-10-16T12:23:36;21.52;;;13.05;;
49015;SDS011;34830;44.064;12.566;2022-10-16T12:26:04;19.58;;;13.30;;
49015;SDS011;34830;44.064;12.566;2022-10-16T12:28:34;18.15;;;13.10;;
49015;SDS011;34830;44.064;12.566;2022-10-16T12:31:02;19.65;;;13.10;;
49015;SDS011;34830;44.064;12.566;2022-10-16T12:33:32;18.58;;;13.25;;
49015;SDS011;34830;44.064;12.566;2022-10-16T12:36:00;20.30;;;12.40;;
49015;SDS011;34830;44.064;12.566;2022-10-16T12:38:30;21.67;;;15.02;;
49015;SDS011;34830;44.064;12.566;2022-10-16T12:41:03;19.05;;;12.48;;
49015;SDS011;34830;44.064;12.566;2022-10-16T12:48:36;25.08;;;14.10;;
49015;SDS011;34830;44.064;12.566;2022-10-16T12:59:09;18.75;;;14.80;;
49015;SDS011;34830;44.064;12.566;2022-10-16T13:01:50;23.02;;;15.10;;
49015;SDS011;34830;44.064;12.566;2022-10-16T13:09:53;21.70;;;17.60;;
49015;SDS011;34830;44.064;12.566;2022-10-16T13:12:39;22.75;;;18.60;;
49015;SDS011;34830;44.064;12.566;2022-10-16T13:18:15;24.83;;;18.38;;
49015;SDS011;34830;44.064;12.566;2022-10-16T13:21:02;25.48;;;19.25;;
49015;SDS011;34830;44.064;12.566;2022-10-16T13:29:18;25.33;;;20.38;;
49015;SDS011;34830;44.064;12.566;2022-10-16T13:31:45;23.75;;;19.08;;
49015;SDS011;34830;44.064;12.566;2022-10-16T13:34:18;26.13;;;19.83;;
49015;SDS011;34830;44.064;12.566;2022-10-16T13:36:48;29.38;;;21.10;;
49015;SDS011;34830;44.064;12.566;2022-10-16T13:39:22;27.98;;;19.55;;
49015;SDS011;34830;44.064;12.566;2022-10-16T13:44:31;24.25;;;18.90;;
49015;SDS011;34830;44.064;12.566;2022-10-16T13:47:10;25.33;;;20.30;;
49015;SDS011;34830;44.064;12.566;2022-10-16T13:49:41;38.90;;;21.40;;
49015;SDS011;34830;44.064;12.566;2022-10-16T13:52:15;27.17;;;20.88;;
49015;SDS011;34830;44.064;12.566;2022-10-16T13:54:43;28.88;;;19.02;;
49015;SDS011;34830;44.064;12.566;2022-10-16T13:57:13;26.58;;;20.98;;
49015;SDS011;34830;44.064;12.566;2022-10-16T13:59:40;24.63;;;19.85;;
49015;SDS011;34830;44.064;12.566;2022-10-16T14:02:15;29.27;;;21.17;;
49015;SDS011;34830;44.064;12.566;2022-10-16T14:04:46;29.25;;;21.17;;
49015;SDS011;34830;44.064;12.566;2022-10-16T14:07:18;29.80;;;21.00;;
49015;SDS011;34830;44.064;12.566;2022-10-16T14:09:49;26.20;;;20.63;;
49015;SDS011;34830;44.064;12.566;2022-10-16T14:12:16;27.10;;;20.00;;
49015;SDS011;34830;44.064;12.566;2022-10-16T14:14:43;27.65;;;20.48;;
49015;SDS011;34830;44.064;12.566;2022-10-16T14:17:18;25.02;;;20.35;;
49015;SDS011;34830;44.064;12.566;2022-10-16T14:19:48;25.20;;;20.10;;
49015;SDS011;34830;44.064;12.566;2022-10-16T14:22:32;25.45;;;20.48;;
49015;SDS011;34830;44.064;12.566;2022-10-16T14:25:00;23.08;;;18.77;;
49015;SDS011;34830;44.064;12.566;2022-10-16T14:27:29;26.73;;;18.85;;
49015;SDS011;34830;44.064;12.566;2022-10-16T14:32:33;26.13;;;19.52;;
49015;SDS011;34830;44.064;12.566;2022-10-16T14:35:00;27.58;;;20.45;;
49015;SDS011;34830;44.064;12.566;2022-10-16T14:37:27;25.30;;;18.67;;
49015;SDS011;34830;44.064;12.566;2022-10-16T14:39:54;23.77;;;18.77;;
49015;SDS011;34830;44.064;12.566;2022-10-16T14:42:22;25.58;;;18.98;;
49015;SDS011;34830;44.064;12.566;2022-10-16T14:44:50;25.48;;;19.02;;
49015;SDS011;34830;44.064;12.566;2022-10-16T14:47:23;27.23;;;19.75;;
49015;SDS011;34830;44.064;12.566;2022-10-16T14:52:20;25.00;;;16.85;;
49015;SDS011;34830;44.064;12.566;2022-10-16T14:54:50;24.80;;;18.55;;
49015;SDS011;34830;44.064;12.566;2022-10-16T14:57:17;27.42;;;19.95;;
49015;SDS011;34830;44.064;12.566;2022-10-16T14:59:45;21.83;;;17.80;;
49015;SDS011;34830;44.064;12.566;2022-10-16T15:02:31;23.70;;;18.02;;
49015;SDS011;34830;44.064;12.566;2022-10-16T15:07:53;25.92;;;17.85;;
49015;SDS011;34830;44.064;12.566;2022-10-16T15:10:21;24.35;;;17.30;;
49015;SDS011;34830;44.064;12.566;2022-10-16T15:12:48;32.50;;;19.60;;
49015;SDS011;34830;44.064;12.566;2022-10-16T15:17:59;25.08;;;18.85;;
49015;SDS011;34830;44.064;12.566;2022-10-16T15:20:31;24.98;;;18.35;;
49015;SDS011;34830;44.064;12.566;2022-10-16T15:23:03;22.67;;;18.10;;
49015;SDS011;34830;44.064;12.566;2022-10-16T15:25:42;23.02;;;18.13;;
49015;SDS011;34830;44.064;12.566;2022-10-16T15:28:09;22.42;;;17.58;;
49015;SDS011;34830;44.064;12.566;2022-10-16T15:30:36;28.45;;;19.08;;
49015;SDS011;34830;44.064;12.566;2022-10-16T15:33:03;25.45;;;18.50;;
49015;SDS011;34830;44.064;12.566;2022-10-16T15:35:30;25.55;;;18.48;;
49015;SDS011;34830;44.064;12.566;2022-10-16T15:37:56;24.02;;;17.55;;
49015;SDS011;34830;44.064;12.566;2022-10-16T15:40:22;20.48;;;15.77;;
49015;SDS011;34830;44.064;12.566;2022-10-16T15:42:49;23.15;;;17.90;;
49015;SDS011;34830;44.064;12.566;2022-10-16T15:45:15;25.63;;;18.40;;
49015;SDS011;34830;44.064;12.566;2022-10-16T15:47:42;24.27;;;17.17;;
49015;SDS011;34830;44.064;12.566;2022-10-16T15:50:12;23.60;;;16.95;;
49015;SDS011;34830;44.064;12.566;2022-10-16T15:52:39;24.63;;;17.65;;
49015;SDS011;34830;44.064;12.566;2022-10-16T15:55:10;26.65;;;18.20;;
49015;SDS011;34830;44.064;12.566;2022-10-16T16:00:06;27.40;;;18.50;;
49015;SDS011;34830;44.064;12.566;2022-10-16T16:02:43;24.38;;;17.83;;
49015;SDS011;34830;44.064;12.566;2022-10-16T16:05:10;30.67;;;20.33;;
49015;SDS011;34830;44.064;12.566;2022-10-16T16:07:37;27.90;;;20.17;;
49015;SDS011;34830;44.064;12.566;2022-10-16T16:10:05;33.00;;;19.13;;
49015;SDS011;34830;44.064;12.566;2022-10-16T16:12:33;22.33;;;18.60;;
49015;SDS011;34830;44.064;12.566;2022-10-16T16:14:59;28.35;;;18.88;;
49015;SDS011;34830;44.064;12.566;2022-10-16T16:17:25;30.55;;;19.08;;
49015;SDS011;34830;44.064;12.566;2022-10-16T16:19:51;26.77;;;18.92;;
49015;SDS011;34830;44.064;12.566;2022-10-16T16:22:18;29.50;;;21.42;;
49015;SDS011;34830;44.064;12.566;2022-10-16T16:24:44;25.85;;;18.73;;
49015;SDS011;34830;44.064;12.566;2022-10-16T16:27:10;25.15;;;18.25;;
49015;SDS011;34830;44.064;12.566;2022-10-16T16:29:36;26.77;;;20.25;;
49015;SDS011;34830;44.064;12.566;2022-10-16T16:32:02;26.30;;;19.38;;
49015;SDS011;34830;44.064;12.566;2022-10-16T16:34:28;27.83;;;19.55;;
49015;SDS011;34830;44.064;12.566;2022-10-16T16:36:55;30.90;;;20.60;;